Time;durP1;ratioP1;P1;durP2;ratioP2;P2;SDS_P1;SDS_P2;PMS_P1;PMS_P2;Temp;Humidity;BMP_temperature;BMP_pressure;BME280_temperature;BME280_humidity;BME280_pressure;Samples;Min_cycle;Max_cycle;Signal;HPM_P1;HPM_P2
2022/08/19 00:01:59;;;;;;;12.38;6.50;;;;;;;21.24;100.00;100883.56;5028005;28;20470;-77
2022/08/19 00:04:32;;;;;;;13.18;6.97;;;;;;;21.25;100.00;100879.50;5036227;28;20052;-77
2022/08/19 00:06:59;;;;;;;11.93;6.63;;;;;;;21.24;100.00;100889.19;5042545;28;20048;-77
2022/08/19 00:09:26;;;;;;;16.63;7.00;;;;;;;21.20;100.00;100897.00;5048331;28;20053;-76
2022/08/19 00:11:56;;;;;;;12.57;6.50;;;;;;;21.17;100.00;100895.94;5048394;28;20055;-77
2022/08/19 00:14:25;;;;;;;13.07;6.63;;;;;;;21.13;100.00;100903.69;5044129;28;20063;-76
2022/08/19 00:16:53;;;;;;;12.55;6.85;;;;;;;21.08;100.00;100897.91;5025694;28;20056;-77
2022/08/19 00:19:22;;;;;;;13.15;6.55;;;;;;;21.04;100.00;100902.91;5050978;28;20052;-77
2022/08/19 00:21:49;;;;;;;14.23;6.55;;;;;;;21.00;100.00;100905.88;5034423;28;20211;-78
2022/08/19 00:24:16;;;;;;;10.60;6.22;;;;;;;21.00;100.00;100897.44;5040021;28;20603;-77
2022/08/19 00:26:43;;;;;;;13.45;7.10;;;;;;;20.99;100.00;100901.47;5036201;28;21064;-77
2022/08/19 00:29:12;;;;;;;15.20;6.25;;;;;;;20.96;100.00;100890.38;5035041;28;20878;-76
2022/08/19 00:31:41;;;;;;;14.52;7.07;;;;;;;20.93;100.00;100894.09;5040215;28;20045;-76
2022/08/19 00:34:08;;;;;;;12.43;6.50;;;;;;;20.92;100.00;100896.13;5044402;28;20048;-76
2022/08/19 00:36:34;;;;;;;12.82;6.80;;;;;;;20.90;100.00;100897.84;5042015;28;20056;-78
2022/08/19 00:39:01;;;;;;;13.45;6.38;;;;;;;20.87;100.00;100891.09;5044131;28;20050;-77
2022/08/19 00:41:28;;;;;;;12.77;7.03;;;;;;;20.84;100.00;100896.88;5048619;28;20115;-76
2022/08/19 00:43:59;;;;;;;15.40;7.10;;;;;;;20.80;100.00;100888.59;5046812;28;20055;-76
2022/08/19 00:46:27;;;;;;;14.30;7.03;;;;;;;20.75;100.00;100894.03;5050194;28;20056;-74
2022/08/19 00:48:54;;;;;;;11.73;6.90;;;;;;;20.71;100.00;100884.94;5049197;28;20533;-77
2022/08/19 00:51:22;;;;;;;13.70;7.40;;;;;;;20.67;100.00;100887.91;5043865;28;20051;-76
2022/08/19 00:53:48;;;;;;;12.98;6.22;;;;;;;20.63;100.00;100886.47;5047424;28;20119;-75
2022/08/19 00:56:16;;;;;;;13.95;6.93;;;;;;;20.64;100.00;100888.03;5052691;28;20059;-75
2022/08/19 00:58:43;;;;;;;13.52;7.10;;;;;;;20.58;100.00;100881.47;5051318;28;20052;-77
2022/08/19 01:01:10;;;;;;;12.27;6.90;;;;;;;20.55;100.00;100885.19;5036662;28;20059;-77
2022/08/19 01:03:37;;;;;;;14.07;7.30;;;;;;;20.55;100.00;100876.75;5042828;28;20048;-77
2022/08/19 01:06:24;;;;;;;12.98;7.30;;;;;;;20.51;100.00;100874.06;5041046;28;20048;-77
2022/08/19 01:08:50;;;;;;;12.55;6.70;;;;;;;20.45;100.00;100881.53;5050513;28;20056;-77
2022/08/19 01:11:17;;;;;;;14.52;6.80;;;;;;;20.41;100.00;100869.66;5047770;28;20461;-75
2022/08/19 01:13:45;;;;;;;13.07;7.38;;;;;;;20.37;100.00;100877.44;5046734;28;20052;-76
2022/08/19 01:16:17;;;;;;;13.80;7.18;;;;;;;20.38;100.00;100878.25;5046158;28;20052;-78
2022/08/19 01:18:44;;;;;;;14.73;7.50;;;;;;;20.33;100.00;100874.78;5044820;28;20580;-76
2022/08/19 01:21:17;;;;;;;12.52;6.93;;;;;;;20.31;100.00;100871.66;5051132;28;20044;-77
2022/08/19 01:23:44;;;;;;;17.42;7.25;;;;;;;20.27;100.00;100879.44;5048586;28;20127;-76
2022/08/19 01:26:21;;;;;;;14.57;7.72;;;;;;;20.30;100.00;100886.94;5046326;28;20052;-76
2022/08/19 01:28:51;;;;;;;11.52;6.15;;;;;;;20.34;100.00;100881.97;5044619;28;20048;-76
2022/08/19 01:31:22;;;;;;;11.05;6.32;;;;;;;20.34;100.00;100887.59;5046945;28;20681;-74
2022/08/19 01:33:55;;;;;;;11.15;6.20;;;;;;;20.30;100.00;100881.31;5048687;28;20663;-76
2022/08/19 01:36:30;;;;;;;13.25;7.10;;;;;;;20.24;100.00;100888.78;5048770;28;20058;-76
2022/08/19 01:38:57;;;;;;;;;;;;;;;20.20;100.00;100890.94;5045370;28;20500;-73
2022/08/19 01:41:24;;;;;;;14.13;8.02;;;;;;;20.18;100.00;100890.59;5044794;28;20025;-77
2022/08/19 01:43:52;;;;;;;13.65;7.88;;;;;;;20.14;100.00;100881.53;5050929;28;20420;-77
2022/08/19 01:46:39;;;;;;;13.13;7.30;;;;;;;20.17;100.00;100891.84;5053903;28;20800;-76
2022/08/19 01:49:07;;;;;;;14.23;7.25;;;;;;;20.17;100.00;100885.44;5051519;28;20044;-77
2022/08/19 01:51:34;;;;;;;12.45;6.95;;;;;;;20.13;100.00;100884.78;5051353;28;20052;-77
2022/08/19 01:54:07;;;;;;;12.90;7.35;;;;;;;20.11;100.00;100885.25;5055467;28;20523;-76
2022/08/19 01:56:34;;;;;;;13.88;7.00;;;;;;;20.09;100.00;100881.31;5065587;28;20052;-75
2022/08/19 01:59:08;;;;;;;15.27;7.57;;;;;;;20.09;100.00;100879.25;5062713;28;20044;-75
2022/08/19 02:01:34;;;;;;;16.73;7.28;;;;;;;20.04;100.00;100870.66;5066722;28;20527;-77
2022/08/19 02:04:01;;;;;;;14.75;7.32;;;;;;;20.01;100.00;100877.97;5069931;28;20105;-75
2022/08/19 02:06:28;;;;;;;17.38;7.78;;;;;;;19.97;100.00;100891.38;5070223;28;20040;-76
2022/08/19 02:08:55;;;;;;;17.92;8.20;;;;;;;19.93;100.00;100887.91;5061979;28;20052;-76
2022/08/19 02:11:34;;;;;;;16.13;8.50;;;;;;;19.92;100.00;100875.09;5069135;28;20072;-77
2022/08/19 02:14:05;;;;;;;13.85;6.97;;;;;;;19.92;100.00;100872.28;5061031;28;20057;-76
2022/08/19 02:16:32;;;;;;;15.65;8.20;;;;;;;19.89;100.00;100864.81;5069883;28;20542;-77
2022/08/19 02:19:02;;;;;;;14.18;7.72;;;;;;;19.91;100.00;100862.31;5069645;28;20150;-74
2022/08/19 02:21:29;;;;;;;18.08;8.15;;;;;;;19.87;100.00;100861.66;5069232;28;20052;-77
2022/08/19 02:23:56;;;;;;;15.20;7.78;;;;;;;19.82;100.00;100862.25;5067826;28;20480;-75
2022/08/19 02:26:26;;;;;;;16.40;7.63;;;;;;;19.81;100.00;100866.28;5069028;28;20136;-76
2022/08/19 02:28:54;;;;;;;14.88;8.57;;;;;;;19.80;100.00;100867.53;5069763;28;20056;-77
2022/08/19 02:31:24;;;;;;;13.25;7.18;;;;;;;19.78;100.00;100870.00;5068636;28;20041;-76
2022/08/19 02:33:52;;;;;;;17.25;7.93;;;;;;;19.79;100.00;100874.41;5069656;28;20091;-76
2022/08/19 02:36:22;;;;;;;13.98;7.78;;;;;;;19.81;100.00;100876.75;5061981;28;20522;-75
2022/08/19 02:38:51;;;;;;;15.60;8.23;;;;;;;19.78;100.00;100886.84;5061486;28;20060;-77
2022/08/19 02:41:32;;;;;;;13.23;7.63;;;;;;;19.78;100.00;100892.47;5065795;28;20083;-76
2022/08/19 02:44:03;;;;;;;15.93;7.90;;;;;;;19.75;100.00;100887.75;5062924;28;20048;-77
2022/08/19 02:46:50;;;;;;;15.40;7.30;;;;;;;19.72;100.00;100883.06;5067025;28;20068;-76
2022/08/19 02:49:17;;;;;;;15.95;7.72;;;;;;;19.75;100.00;100881.38;5069399;28;20126;-76
2022/08/19 02:51:45;;;;;;;14.73;7.75;;;;;;;19.74;100.00;100882.59;5065362;28;20140;-76
2022/08/19 02:54:14;;;;;;;15.45;8.50;;;;;;;19.70;100.00;100879.94;5067206;28;20639;-75
2022/08/19 02:56:42;;;;;;;15.02;7.82;;;;;;;19.70;100.00;100882.75;5068744;28;20067;-76
2022/08/19 02:59:09;;;;;;;15.05;7.72;;;;;;;19.71;100.00;100881.50;5069517;28;20083;-76
2022/08/19 03:01:39;;;;;;;16.35;8.27;;;;;;;19.69;100.00;100884.00;5067530;28;20052;-76
2022/08/19 03:04:07;;;;;;;15.65;8.45;;;;;;;19.70;100.00;100879.13;5085132;28;20048;-76
2022/08/19 03:06:37;;;;;;;16.10;7.65;;;;;;;19.69;100.00;100874.78;5066569;28;20067;-76
2022/08/19 03:09:04;;;;;;;15.85;7.95;;;;;;;19.68;100.00;100876.78;5068289;28;20058;-76
2022/08/19 03:11:32;;;;;;;19.90;8.88;;;;;;;19.70;100.00;100867.91;5066556;28;20052;-74
2022/08/19 03:13:59;;;;;;;16.38;8.52;;;;;;;19.69;100.00;100872.75;5068311;28;20416;-75
2022/08/19 03:16:28;;;;;;;14.80;7.38;;;;;;;19.64;100.00;100864.13;5068273;28;20583;-75
2022/08/19 03:19:00;;;;;;;15.55;8.30;;;;;;;19.66;100.00;100879.28;5060775;28;20040;-76
2022/08/19 03:21:28;;;;;;;14.40;7.60;;;;;;;19.66;100.00;100873.66;5065693;28;20445;-76
2022/08/19 03:23:57;;;;;;;15.85;7.55;;;;;;;19.62;100.00;100881.44;5068598;28;20563;-76
2022/08/19 03:26:24;;;;;;;16.88;8.35;;;;;;;19.57;100.00;100876.38;5067820;28;20572;-76
2022/08/19 03:28:51;;;;;;;16.92;8.20;;;;;;;19.57;100.00;100882.00;5066977;28;20056;-75
2022/08/19 03:31:25;;;;;;;15.75;8.77;;;;;;;19.56;100.00;100885.25;5060552;28;20060;-76
2022/08/19 03:34:33;;;;;;;14.85;7.70;;;;;;;19.51;100.00;100883.81;5068574;28;20084;-76
2022/08/19 03:37:05;;;;;;;15.43;7.78;;;;;;;19.50;100.00;100875.84;5067949;28;20051;-76
2022/08/19 03:39:31;;;;;;;14.77;8.23;;;;;;;19.48;100.00;100879.09;5064832;28;20123;-76
2022/08/19 03:42:02;;;;;;;15.23;8.52;;;;;;;19.48;100.00;100870.69;5066791;28;20059;-76
2022/08/19 03:44:48;;;;;;;15.48;8.73;;;;;;;19.51;100.00;100878.19;5068000;28;20059;-77
2022/08/19 03:47:15;;;;;;;17.05;8.90;;;;;;;19.53;100.00;100874.94;5062279;28;20060;-77
2022/08/19 03:49:42;;;;;;;17.65;9.43;;;;;;;19.51;100.00;100872.59;5067111;28;20044;-75
2022/08/19 03:52:08;;;;;;;16.35;9.75;;;;;;;19.49;100.00;100868.66;5065229;28;20044;-77
2022/08/19 03:54:37;;;;;;;17.92;9.13;;;;;;;19.49;100.00;100874.28;5063246;28;20652;-76
2022/08/19 03:57:04;;;;;;;17.27;9.23;;;;;;;19.51;100.00;100880.25;5062908;28;20145;-77
2022/08/19 03:59:35;;;;;;;21.25;10.50;;;;;;;19.51;100.00;100881.00;5067888;28;20057;-76
2022/08/19 04:02:08;;;;;;;17.52;9.55;;;;;;;19.50;100.00;100882.25;5066831;28;20044;-76
2022/08/19 04:04:37;;;;;;;15.60;9.40;;;;;;;19.44;100.00;100884.06;5067719;28;20048;-76
2022/08/19 04:07:04;;;;;;;15.90;9.02;;;;;;;19.49;100.00;100888.31;5067589;28;20058;-76
2022/08/19 04:09:35;;;;;;;16.65;8.95;;;;;;;19.43;100.00;100892.94;5064733;28;20576;-76
2022/08/19 04:12:05;;;;;;;15.63;8.73;;;;;;;19.39;100.00;100895.06;5062286;28;20048;-76
2022/08/19 04:14:33;;;;;;;18.10;9.07;;;;;;;19.36;100.00;100895.97;5067556;28;20045;-77
2022/08/19 04:17:01;;;;;;;16.73;8.95;;;;;;;19.37;100.00;100883.53;5064392;28;20094;-77
2022/08/19 04:19:30;;;;;;;17.13;8.48;;;;;;;19.36;100.00;100884.75;5063470;28;20135;-76
2022/08/19 04:21:58;;;;;;;14.73;7.93;;;;;;;19.36;100.00;100890.38;5062748;28;20051;-76
2022/08/19 04:24:24;;;;;;;17.65;9.57;;;;;;;19.35;100.00;100894.41;5067742;28;20066;-74
2022/08/19 04:26:51;;;;;;;16.90;8.88;;;;;;;19.33;100.00;100896.88;5067515;28;20505;-75
2022/08/19 04:29:24;;;;;;;13.32;7.63;;;;;;;19.31;100.00;100902.94;5067388;28;20131;-76
2022/08/19 04:31:53;;;;;;;14.90;8.38;;;;;;;19.31;100.00;100897.34;5066197;28;20048;-75
2022/08/19 04:34:22;;;;;;;14.43;8.35;;;;;;;19.28;100.00;100897.47;5067637;28;20127;-75
2022/08/19 04:36:50;;;;;;;19.00;9.07;;;;;;;19.31;100.00;100894.53;5064503;28;20600;-76
2022/08/19 04:39:20;;;;;;;17.77;8.77;;;;;;;19.35;100.00;100897.22;5065963;28;20124;-76
2022/08/19 04:44:34;;;;;;;17.65;7.97;;;;;;;19.41;100.00;100899.00;5064095;28;20048;-76
2022/08/19 04:47:06;;;;;;;15.43;8.90;;;;;;;19.44;100.00;100900.13;5066177;28;20059;-76
2022/08/19 04:49:36;;;;;;;18.17;8.45;;;;;;;19.43;100.00;100910.56;5066657;28;20543;-75
2022/08/19 04:52:03;;;;;;;15.95;8.35;;;;;;;19.46;100.00;100906.06;5066237;28;20049;-76
2022/08/19 04:54:29;;;;;;;15.25;8.57;;;;;;;19.48;100.00;100909.97;5067698;28;20166;-75
2022/08/19 04:57:06;;;;;;;16.23;8.25;;;;;;;19.49;100.00;100900.34;5065879;28;20068;-75
2022/08/19 04:59:35;;;;;;;18.05;8.88;;;;;;;19.54;100.00;100916.59;5067269;28;20496;-75
2022/08/19 05:02:02;;;;;;;15.27;8.50;;;;;;;19.57;100.00;100921.28;5063585;28;20041;-75
2022/08/19 05:04:30;;;;;;;17.17;9.00;;;;;;;19.48;100.00;100907.16;5067292;28;20082;-73
2022/08/19 05:06:57;;;;;;;19.55;9.55;;;;;;;19.58;100.00;100916.47;5066505;28;20078;-74
2022/08/19 05:09:27;;;;;;;20.77;8.30;;;;;;;19.65;100.00;100919.03;5067190;28;20094;-76
2022/08/19 05:12:14;;;;;;;18.60;8.10;;;;;;;19.72;100.00;100919.56;5069852;28;20051;-76
2022/08/19 05:14:40;;;;;;;17.27;8.57;;;;;;;19.76;100.00;100919.44;5071542;28;20041;-77
2022/08/19 05:17:06;;;;;;;15.30;8.70;;;;;;;19.79;100.00;100922.13;5070438;28;20068;-74
2022/08/19 05:22:38;;;;;;;15.02;7.72;;;;;;;19.85;100.00;100917.47;5070153;28;19930;-74
2022/08/19 05:25:07;;;;;;;17.25;8.02;;;;;;;19.87;100.00;100933.88;5068179;28;20049;-73
2022/08/19 05:27:40;;;;;;;16.10;9.00;;;;;;;19.94;100.00;100934.41;5070936;28;20067;-74
2022/08/19 05:30:07;;;;;;;15.35;8.40;;;;;;;20.01;100.00;100933.34;5071446;28;20117;-74
2022/08/19 05:32:34;;;;;;;16.15;8.85;;;;;;;20.08;100.00;100933.13;5069539;28;20047;-73
2022/08/19 05:35:01;;;;;;;17.95;9.23;;;;;;;20.11;100.00;100927.38;5060102;28;20063;-75
2022/08/19 05:37:28;;;;;;;16.33;9.00;;;;;;;20.21;100.00;100929.03;5066687;28;20512;-75
2022/08/19 05:39:54;;;;;;;21.98;13.00;;;;;;;20.26;100.00;100936.84;5070022;28;20052;-73
2022/08/19 05:42:22;;;;;;;19.35;12.40;;;;;;;20.27;100.00;100930.00;5070290;28;20054;-73
2022/08/19 05:44:50;;;;;;;22.67;13.48;;;;;;;20.22;100.00;100936.19;5070997;28;20052;-73
2022/08/19 05:47:19;;;;;;;23.10;12.85;;;;;;;20.28;100.00;100928.75;5065605;28;20059;-75
2022/08/19 05:49:49;;;;;;;24.90;13.70;;;;;;;20.36;100.00;100932.84;5065766;28;20076;-72
2022/08/19 05:52:16;;;;;;;24.52;12.93;;;;;;;20.41;100.00;100928.69;5065787;28;20049;-72
2022/08/19 05:54:47;;;;;;;25.30;14.50;;;;;;;20.51;100.00;100935.91;5064939;28;20055;-71
2022/08/19 05:57:17;;;;;;;26.98;14.63;;;;;;;20.61;100.00;100937.53;5065300;28;20098;-74
2022/08/19 05:59:46;;;;;;;25.95;14.77;;;;;;;20.68;100.00;100945.69;5069684;28;20160;-72
2022/08/19 06:02:13;;;;;;;24.00;14.85;;;;;;;20.72;100.00;100940.72;5066890;28;20129;-72
2022/08/19 06:04:42;;;;;;;26.95;15.70;;;;;;;20.65;100.00;100928.97;5065235;28;20114;-72
2022/08/19 06:07:09;;;;;;;25.83;15.82;;;;;;;20.68;100.00;100930.88;5067127;28;20056;-72
2022/08/19 06:09:39;;;;;;;24.35;15.57;;;;;;;20.73;100.00;100925.44;5066668;28;20052;-72
2022/08/19 06:12:06;;;;;;;26.80;15.82;;;;;;;20.74;100.00;100935.41;5065442;28;20142;-70
2022/08/19 06:14:34;;;;;;;24.35;15.65;;;;;;;20.81;100.00;100928.72;5064281;28;20080;-72
2022/08/19 06:17:07;;;;;;;25.75;16.35;;;;;;;20.83;100.00;100931.88;5063861;28;20423;-73
2022/08/19 06:19:36;;;;;;;32.42;18.77;;;;;;;20.88;100.00;100931.25;5064544;28;20048;-72
2022/08/19 06:22:07;;;;;;;28.83;17.77;;;;;;;20.93;100.00;100925.84;5061618;28;20057;-73
2022/08/19 06:24:34;;;;;;;35.38;19.27;;;;;;;20.95;100.00;100922.59;5068956;28;20052;-72
2022/08/19 06:27:05;;;;;;;31.55;17.90;;;;;;;21.02;100.00;100923.06;5061235;28;20136;-73
2022/08/19 06:29:32;;;;;;;27.27;17.98;;;;;;;21.03;100.00;100924.66;5066378;28;20098;-74
2022/08/19 06:32:01;;;;;;;30.75;19.80;;;;;;;21.16;100.00;100932.97;5063151;28;20501;-72
2022/08/19 06:34:29;;;;;;;37.22;19.73;;;;;;;21.11;100.00;100931.53;5064918;28;20048;-71
2022/08/19 06:37:01;;;;;;;32.10;19.27;;;;;;;21.05;100.00;100933.38;5067592;28;20068;-72
2022/08/19 06:39:30;;;;;;;30.92;18.45;;;;;;;21.01;100.00;100929.16;5066692;28;20132;-70
2022/08/19 06:42:01;;;;;;;31.20;19.58;;;;;;;20.98;100.00;100933.69;5066357;28;20063;-71
2022/08/19 06:44:34;;;;;;;29.52;17.45;;;;;;;21.00;100.00;100936.81;5067178;28;20531;-71
2022/08/19 06:47:10;;;;;;;37.75;21.10;;;;;;;21.01;100.00;100927.13;5064462;28;20575;-70
2022/08/19 06:49:49;;;;;;;38.15;21.00;;;;;;;21.10;100.00;100926.38;5065660;28;20045;-72
2022/08/19 06:52:17;;;;;;;32.33;19.58;;;;;;;21.09;100.00;100928.41;5066051;28;20076;-73
2022/08/19 06:54:44;;;;;;;45.38;25.13;;;;;;;21.20;100.00;100928.75;5066924;28;20044;-73
2022/08/19 06:57:23;;;;;;;32.22;17.55;;;;;;;21.21;100.00;100923.91;5067170;28;20052;-71
2022/08/19 06:59:49;;;;;;;38.30;24.00;;;;;;;21.34;100.00;100928.16;5067580;28;20054;-73
2022/08/19 07:02:16;;;;;;;38.60;23.75;;;;;;;21.44;100.00;100931.78;5063900;28;20051;-74
2022/08/19 07:04:43;;;;;;;42.03;24.88;;;;;;;21.54;100.00;100936.19;5023776;28;20142;-71
2022/08/19 07:07:13;;;;;;;43.17;25.70;;;;;;;21.53;100.00;100931.81;5025508;28;20132;-71
2022/08/19 07:09:47;;;;;;;40.35;25.10;;;;;;;21.61;100.00;100925.41;5023128;28;20192;-71
2022/08/19 07:12:33;;;;;;;44.95;22.63;;;;;;;21.57;100.00;100926.78;5017606;28;20056;-74
2022/08/19 07:15:03;;;;;;;;;;;;;;;21.64;100.00;100932.13;5017870;28;20049;-71
2022/08/19 07:17:30;;;;;;;36.42;21.77;;;;;;;21.64;100.00;100935.72;5023256;28;20385;-72
2022/08/19 07:19:56;;;;;;;40.47;23.38;;;;;;;21.79;100.00;100938.72;5023870;28;20081;-75
2022/08/19 07:22:32;;;;;;;40.33;25.10;;;;;;;21.90;100.00;100939.06;5028542;28;20131;-76
2022/08/19 07:24:59;;;;;;;32.80;19.92;;;;;;;21.85;100.00;100943.28;5066932;28;20299;-73
2022/08/19 07:27:26;;;;;;;35.28;19.52;;;;;;;21.89;100.00;100934.66;5063744;28;20059;-72
2022/08/19 07:29:53;;;;;;;34.17;18.33;;;;;;;21.97;100.00;100939.50;5065325;28;20139;-72
2022/08/19 07:32:26;;;;;;;29.60;16.30;;;;;;;21.97;100.00;100944.38;5063370;28;20064;-73
2022/08/19 07:34:52;;;;;;;31.35;17.40;;;;;;;21.97;100.00;100953.59;5064651;28;20048;-72
2022/08/19 07:37:19;;;;;;;36.13;20.15;;;;;;;22.11;100.00;100955.00;5060211;28;20048;-75
2022/08/19 07:39:45;;;;;;;30.77;16.17;;;;;;;22.05;100.00;100965.34;5064730;28;20432;-71
2022/08/19 07:42:13;;;;;;;33.22;14.65;;;;;;;22.06;100.00;100961.25;5064744;28;20045;-73
2022/08/19 07:44:41;;;;;;;32.03;19.15;;;;;;;22.18;100.00;100968.78;5060165;28;20048;-70
2022/08/19 07:47:17;;;;;;;32.15;21.75;;;;;;;22.43;100.00;100968.44;5061539;28;20216;-73
2022/08/19 07:50:08;;;;;;;33.65;19.20;;;;;;;22.56;100.00;100964.22;5060065;28;20101;-72
2022/08/19 07:52:38;;;;;;;29.75;18.48;;;;;;;22.58;100.00;100975.78;5063334;28;20048;-72
2022/08/19 07:55:07;;;;;;;32.20;18.63;;;;;;;22.75;100.00;100964.97;5063699;28;20068;-70
2022/08/19 07:57:53;;;;;;;35.30;21.33;;;;;;;22.89;100.00;100966.31;5060097;28;20056;-71
2022/08/19 08:00:20;;;;;;;32.58;18.45;;;;;;;23.07;100.00;100975.50;5063887;28;20086;-73
2022/08/19 08:02:50;;;;;;;35.35;21.70;;;;;;;23.24;100.00;100973.88;5065575;28;20048;-70
2022/08/19 08:10:53;;;;;;;32.22;16.80;;;;;;;23.56;100.00;100978.72;5064171;28;20163;-72
2022/08/19 08:13:23;;;;;;;29.13;16.65;;;;;;;23.79;100.00;100977.94;5065209;28;20045;-71
2022/08/19 08:15:50;;;;;;;28.05;16.48;;;;;;;23.89;100.00;100987.91;5064539;28;20056;-71
2022/08/19 08:18:20;;;;;;;27.88;16.80;;;;;;;23.98;100.00;100987.09;5067150;28;20334;-71
2022/08/19 08:20:47;;;;;;;23.95;14.10;;;;;;;24.13;100.00;100990.75;5063995;28;20048;-70
2022/08/19 08:23:23;;;;;;;24.42;14.80;;;;;;;24.24;100.00;100983.25;5062958;28;20071;-71
2022/08/19 08:25:51;;;;;;;26.63;14.70;;;;;;;24.41;100.00;100994.88;5064057;28;20052;-72
2022/08/19 08:28:18;;;;;;;25.48;16.98;;;;;;;24.44;100.00;101002.41;5062376;28;20581;-70
2022/08/19 08:30:47;;;;;;;27.15;14.98;;;;;;;24.45;100.00;101001.13;5063381;28;20161;-72
2022/08/19 08:33:25;;;;;;;25.90;15.55;;;;;;;24.52;100.00;101003.56;5065054;28;20493;-72
2022/08/19 08:36:11;;;;;;;24.45;14.73;;;;;;;24.58;100.00;100999.59;5064426;28;20051;-71
2022/08/19 08:38:38;;;;;;;23.85;14.93;;;;;;;24.72;100.00;100998.84;5065638;28;20526;-71
2022/08/19 08:41:19;;;;;;;19.48;6.13;;;;;;;24.48;100.00;100997.31;5063119;28;20140;-73
2022/08/19 08:43:48;;;;;;;22.42;13.07;;;;;;;24.52;100.00;101007.19;5064086;28;20445;-72
2022/08/19 08:46:30;;;;;;;30.48;15.40;;;;;;;24.90;100.00;101009.97;5066667;28;20060;-72
2022/08/19 08:49:35;;;;;;;27.48;15.55;;;;;;;25.17;98.16;100998.31;5063147;28;20136;-70
2022/08/19 08:52:21;;;;;;;25.80;17.38;;;;;;;25.35;95.82;100997.34;5063809;28;20072;-70
2022/08/19 08:54:51;;;;;;;26.67;16.33;;;;;;;25.50;93.71;101000.09;5057016;28;20098;-70
2022/08/19 08:57:33;;;;;;;23.90;14.50;;;;;;;25.64;90.86;101004.97;5062107;28;20048;-69
2022/08/19 09:00:12;;;;;;;26.70;15.32;;;;;;;25.76;88.63;101001.78;5060885;28;20457;-72
2022/08/19 09:02:42;;;;;;;19.67;9.70;;;;;;;25.76;87.77;100998.16;5066063;28;20052;-71
2022/08/19 09:05:12;;;;;;;26.80;15.25;;;;;;;25.84;84.18;100997.25;5066159;28;20044;-71
2022/08/19 09:07:57;;;;;;;23.13;15.45;;;;;;;26.07;84.56;101004.00;5061632;28;20047;-69
2022/08/19 09:10:39;;;;;;;22.77;12.35;;;;;;;26.29;81.67;100999.34;5065928;28;20052;-73
2022/08/19 09:13:22;;;;;;;27.92;15.70;;;;;;;26.46;81.22;100997.47;5064869;28;20566;-70
2022/08/19 09:15:57;;;;;;;19.23;9.55;;;;;;;26.07;82.23;100989.81;5064379;28;20055;-76
2022/08/19 09:18:23;;;;;;;23.65;14.57;;;;;;;26.19;83.72;100994.34;5063870;28;20052;-70
2022/08/19 09:20:55;;;;;;;23.67;14.18;;;;;;;26.20;82.22;101001.56;5062754;28;20501;-70
2022/08/19 09:23:23;;;;;;;23.33;13.98;;;;;;;26.37;82.34;100999.72;5065976;28;20106;-72
2022/08/19 09:25:52;;;;;;;26.58;17.10;;;;;;;26.17;81.35;101011.06;5066549;28;20087;-71
2022/08/19 09:28:19;;;;;;;24.92;14.45;;;;;;;26.03;80.73;100995.72;5066357;28;20135;-72
2022/08/19 09:30:48;;;;;;;21.40;11.73;;;;;;;26.10;81.10;101000.16;5067049;28;20051;-71
2022/08/19 09:33:15;;;;;;;25.00;15.00;;;;;;;26.24;81.77;101004.97;5063500;28;20049;-73
2022/08/19 09:35:41;;;;;;;27.92;14.52;;;;;;;26.22;79.72;101004.72;5063649;28;20754;-72
2022/08/19 09:38:15;;;;;;;26.48;16.70;;;;;;;26.22;79.94;100999.78;5066526;28;20629;-71
2022/08/19 09:40:42;;;;;;;23.20;13.23;;;;;;;26.21;80.63;101001.09;5065114;28;20523;-72
2022/08/19 09:43:10;;;;;;;29.40;18.73;;;;;;;26.64;80.00;101002.09;5064936;28;20048;-71
2022/08/19 09:45:39;;;;;;;26.48;16.45;;;;;;;26.89;78.17;100996.38;5063311;28;20493;-71
2022/08/19 09:48:06;;;;;;;27.23;17.88;;;;;;;26.78;76.20;100996.28;5064556;28;20505;-70
2022/08/19 09:50:36;;;;;;;18.67;7.47;;;;;;;26.47;75.69;100992.59;5065273;28;20455;-76
2022/08/19 09:53:02;;;;;;;26.77;17.88;;;;;;;26.90;76.20;100997.16;5065657;28;20132;-73
2022/08/19 09:55:32;;;;;;;27.10;18.15;;;;;;;27.29;74.43;101003.94;5069449;28;20936;-71
2022/08/19 09:58:02;;;;;;;15.50;7.10;;;;;;;26.78;73.49;100982.09;5068632;28;20135;-73
2022/08/19 10:00:30;;;;;;;21.38;11.00;;;;;;;26.66;75.47;100988.94;5069765;28;20090;-73
2022/08/19 10:02:57;;;;;;;22.80;11.75;;;;;;;26.73;74.49;100990.56;5066234;28;20059;-71
2022/08/19 10:08:09;;;;;;;30.17;17.88;;;;;;;27.09;74.55;100992.66;5070306;28;20048;-73
2022/08/19 10:10:43;;;;;;;21.92;12.80;;;;;;;27.12;72.27;100994.50;5068707;28;20082;-73
2022/08/19 10:13:12;;;;;;;25.05;14.45;;;;;;;27.41;70.41;100991.38;5069347;28;20044;-72
2022/08/19 10:15:40;;;;;;;27.23;15.45;;;;;;;27.54;70.38;100988.91;5068763;28;20432;-73
2022/08/19 10:18:13;;;;;;;25.48;14.25;;;;;;;27.54;65.95;100988.91;5067873;28;21038;-71
2022/08/19 10:20:41;;;;;;;22.52;13.98;;;;;;;27.96;66.16;100990.91;5066067;28;20537;-71
2022/08/19 10:23:09;;;;;;;15.13;7.82;;;;;;;27.46;63.97;100990.63;5064261;28;20579;-71
2022/08/19 10:25:35;;;;;;;20.25;11.77;;;;;;;27.67;64.48;100977.06;5061972;28;20139;-71
2022/08/19 10:28:05;;;;;;;19.77;11.48;;;;;;;27.93;64.04;100980.56;5065338;28;20139;-72
2022/08/19 10:30:36;;;;;;;20.50;12.55;;;;;;;28.25;62.83;100974.25;5065823;28;20068;-72
2022/08/19 10:33:03;;;;;;;22.02;9.88;;;;;;;28.27;60.91;100982.22;5068749;28;20056;-73
2022/08/19 10:35:36;;;;;;;22.20;11.13;;;;;;;28.03;59.60;100985.53;5067064;28;20556;-72
2022/08/19 10:38:22;;;;;;;23.35;13.38;;;;;;;28.28;60.78;100973.19;5064140;28;20060;-73
2022/08/19 10:40:57;;;;;;;21.98;12.85;;;;;;;28.62;61.16;100980.53;5067361;28;20044;-72
2022/08/19 10:43:24;;;;;;;25.98;13.45;;;;;;;28.30;57.54;100964.13;5068598;28;20127;-72
2022/08/19 10:45:56;;;;;;;22.60;13.80;;;;;;;28.27;58.90;100971.63;5067913;28;20133;-71
2022/08/19 10:48:23;;;;;;;22.92;12.95;;;;;;;28.25;56.78;100974.25;5068659;28;20044;-71
2022/08/19 10:53:34;;;;;;;21.20;13.10;;;;;;;28.04;58.24;100966.41;5068635;28;20127;-72
2022/08/19 10:58:46;;;;;;;7.55;3.60;;;;;;;27.50;59.01;100971.28;5067393;28;20487;-74
2022/08/19 11:01:13;;;;;;;26.42;15.38;;;;;;;27.94;58.54;100970.75;5065248;28;20041;-74
2022/08/19 11:03:39;;;;;;;22.15;14.10;;;;;;;28.20;58.67;100969.28;5068414;28;20132;-75
2022/08/19 11:06:08;;;;;;;23.45;15.02;;;;;;;28.24;59.25;100972.66;5060406;28;20047;-75
2022/08/19 11:08:37;;;;;;;22.85;14.68;;;;;;;28.21;59.49;100970.84;5068421;28;20041;-75
2022/08/19 11:11:06;;;;;;;26.40;16.33;;;;;;;28.01;59.55;100976.72;5058343;28;20068;-72
2022/08/19 11:13:37;;;;;;;25.50;15.52;;;;;;;27.92;60.84;100976.16;5049478;28;20049;-75
2022/08/19 11:16:07;;;;;;;24.48;15.32;;;;;;;28.12;59.34;100973.94;5046890;28;20123;-74
2022/08/19 11:18:39;;;;;;;21.88;9.23;;;;;;;27.47;61.13;100977.22;5045111;28;20879;-72
2022/08/19 11:21:33;;;;;;;20.35;9.02;;;;;;;27.61;60.04;100982.72;5045560;28;20052;-71
2022/08/19 11:24:06;;;;;;;22.05;13.55;;;;;;;28.40;58.88;100968.28;5043211;28;20812;-71
2022/08/19 11:26:33;;;;;;;26.77;15.70;;;;;;;28.82;56.21;100977.44;5045158;28;20058;-71
2022/08/19 11:29:01;;;;;;;22.92;14.32;;;;;;;29.39;55.39;100979.78;5050205;28;20060;-71
2022/08/19 11:31:33;;;;;;;20.38;12.85;;;;;;;29.62;52.71;100962.09;5045226;28;20059;-70
2022/08/19 11:34:02;;;;;;;23.45;13.65;;;;;;;29.70;52.65;100973.75;5052963;28;20045;-71
2022/08/19 11:36:31;;;;;;;22.73;14.77;;;;;;;29.82;52.85;100968.78;5049155;28;20048;-71
2022/08/19 11:38:58;;;;;;;17.38;9.50;;;;;;;29.49;51.76;100973.25;5051239;28;20856;-71
2022/08/19 11:41:25;;;;;;;22.30;13.98;;;;;;;29.60;52.78;100966.78;5049436;28;20049;-71